Mount Aukum, California
Current Conditions -  °F | °C
As of 9:15 AM on Friday 19 Dec 2014 (Local Time) from KPVF Reporting Station
Few Clouds Few Clouds  
Wind Chill: 38°   Ceiling: Unl
Heat Index: 45°   Visibility: 4mi
Dew Point: 41°   Wind: 13mph
Humidity: 87%   Direction: 160°SSE
Pressure: 30.17"   Gusts: 18mph
Location:  38.55°N, 120.73°W
Report Text: KPVF 191715Z AUTO 16011G16KT 4SM FEW028 07/05 A3017 RMK AO1 P0001
Loading
Personal Weather Stations






























Interactive Weather Map New forecast layout! Learn more

10-Day Weather Forecast

Advertisements
Track Severe Weather on mobile